Home > Products > Valid Products > TAF

000
FTUS45 KPUB 282333
TAFCOS
TAF
KCOS 282333Z 2900/2924 16010KT P6SM -RASN FEW007 BKN018 OVC024
      TEMPO 2900/2904 3SM -SHRASN BR BKN015
     FM290400 12010KT 2SM -SHSN BR OVC010
     FM290600 06012KT 3/4SM -SN BR OVC006
     FM290900 03013KT 1/2SM SN FZFG OVC004
     FM291500 36012G22KT 3SM -SN BR OVC008
     FM291900 01015G25KT 5SM -SHSN SCT008 BKN015
     FM292200 01014KT P6SM SCT015 BKN035=



000
FTUS45 KPUB 282333
TAFALS
TAF
KALS 282333Z 2900/2924 09015G25KT P6SM VCSH SCT060 OVC100
      TEMPO 2900/2902 3SM -SHRA BR BKN030
     FM290200 10010KT P6SM -SHRASN BKN050 OVC080
     FM290500 03010KT 3SM -SHRASN BKN020 OVC040
     FM290900 14009KT 3SM -SHRASN SCT010 OVC030
     FM292100 35010KT 5SM -SHRA SCT025 BKN035=



000
FTUS45 KPUB 282333
TAFPUB
TAF
KPUB 282333Z 2900/2924 07010KT P6SM VCSH BKN040 OVC070
      TEMPO 2900/2903 5SM -SHRA BKN020
     FM290300 05011KT 3SM -SHRASN BR OVC030
     FM290600 09014KT 3SM -SHRA BR OVC015
     FM290800 03011KT 2SM -SN BR OVC008
     FM291600 01012G22KT 3SM -SN BR OVC012
     FM291900 36015G25KT 5SM -SHRASN BKN018
     FM292100 36014KT P6SM BKN025=



000
FTUS45 KPUB 282202 AAA
TAFPUB
TAF AMD
KPUB 282202Z 2822/2918 04010G20KT P6SM VCSH OVC040
      TEMPO 2822/2902 5SM -SHRASN BKN020
     FM290300 05012KT 3SM -SHRASN BR OVC020=



000
FTUS45 KPUB 282202 AAA
TAFPUB
TAF AMD
KPUB 282202Z 2822/2918 04010G20KT P6SM VCSH OVC040
      TEMPO 2822/2902 5SM -SHRASN BKN020
     FM290300 05012KT 3SM -SHRASN BR OVC020=



000
FTUS45 KPUB 282202 AAA
TAFCOS
TAF AMD
KCOS 282202Z 2822/2918 18010G20KT P6SM -RASN VCSH FEW007 BKN018
      OVC024
      TEMPO 2822/2901 3SM -SHRASN BR BKN015
     FM290100 12010KT 2SM -SHSN BR OVC010
     FM290500 06012KT 3/4SM -SN BR OVC010=



000
FTUS45 KPUB 282201 AAA
TAFALS
TAF AMD
KALS 282201Z 2822/2918 17015G30KT P6SM VCSH FEW035 SCT060 BKN070
      TEMPO 2900/2904 3SM -SHSN BR BKN020=



000
FTUS45 KPUB 281720
TAFALS
TAF
KALS 281720Z 2818/2918 18012G22KT P6SM VCTS BKN060CB OVC080
      TEMPO 2818/2822 3SM -TSRASNGR BKN030CB
     FM282200 20010KT P6SM VCSH SCT030 OVC060
      TEMPO 2900/2904 3SM -SHSN BR BKN020=



000
FTUS45 KPUB 281720
TAFPUB
TAF
KPUB 281720Z 2818/2918 10010G20KT P6SM VCSH OVC035
     FM282000 08012KT P6SM VCSH SCT020 OVC040
      TEMPO 2822/2902 5SM -SHRASN BKN020
     FM290300 05012KT 3SM -SHRASN BR OVC020=



000
FTUS45 KPUB 281720
TAFCOS
TAF
KCOS 281720Z 2818/2918 16010G20KT 6SM BR VCSH OVC005
      TEMPO 2821/2901 3SM -SHRASN BR BKN015
     FM290100 12010KT 2SM -SHSN BR OVC010
     FM290500 06012KT 3/4SM -SN BR OVC010=



000
FTUS45 KPUB 281510 AAB
TAFALS
TAF AMD
KALS 281510Z 2815/2912 18012KT P6SM VCSH BKN060 OVC080
      TEMPO 2815/2818 3SM -SHRASN BKN020
     FM281800 18015G25KT P6SM VCTS SCT080CB BKN150
      TEMPO 2820/2824 5SM -TSRASN BKN060CB
     FM290000 20010KT P6SM VCSH SCT030 OVC060
      TEMPO 2900/2904 3SM -SHSN BR BKN020=



000
FTUS45 KPUB 281509 AAB
TAFCOS
TAF AMD
KCOS 281509Z 2815/2912 15010KT 1/2SM SN FG BKN004 OVC008
      TEMPO 2815/2818 2SM -SHRASN BKN020
     FM281800 16012KT P6SM VCSH SCT015 OVC030
      TEMPO 2821/2901 5SM -SHRA BR BKN015
     FM290100 12010KT 3SM -SHRASN BR OVC015
     FM290500 06012KT 3/4SM -SHSN BR OVC010=



000
FTUS45 KPUB 281333 AAB
TAFCOS
TAF AMD
KCOS 281333Z 2814/2912 15008KT P6SM VCSH SCT020 OVC040
      TEMPO 2814/2818 2SM -SHRASN BKN020
     FM281800 16012KT P6SM VCSH SCT015 OVC030
      TEMPO 2821/2901 5SM -SHRA BR BKN015
     FM290100 12010KT 3SM -SHRASN BR OVC015
     FM290500 06012KT 3/4SM -SHSN BR OVC010=



000
FTUS45 KPUB 281231 AAA
TAFALS
TAF AMD
KALS 281231Z 2813/2912 16008KT P6SM VCSH SCT020 OVC050
      TEMPO 2814/2818 -SHRA BKN020
     FM281800 18015G25KT P6SM VCTS SCT080CB BKN150
      TEMPO 2820/2824 5SM -TSRASN BKN060CB
     FM290000 20010KT P6SM VCSH SCT030 OVC060
      TEMPO 2900/2904 3SM -SHSN BR BKN020=



000
FTUS45 KPUB 281230 AAA
TAFCOS
TAF AMD
KCOS 281230Z 2813/2912 15008KT P6SM VCSH SCT020 OVC040
      TEMPO 2814/2818 -SHRA BKN020
     FM281800 16012KT P6SM VCSH SCT015 OVC030
      TEMPO 2821/2901 5SM -SHRA BR BKN015
     FM290100 12010KT 3SM -SHRASN BR OVC015
     FM290500 06012KT 3/4SM -SHSN BR OVC010=



000
FTUS45 KPUB 281134
TAFPUB
TAF
KPUB 281134Z 2812/2912 10010KT P6SM VCSH SCT030 OVC060
      TEMPO 2812/2816 -SHRA BKN030
     FM282000 08012KT P6SM VCSH SCT020 OVC040
      TEMPO 2822/2902 -SHRA BKN020
     FM290300 05012KT 3SM -SHRA BR OVC020=



000
FTUS45 KPUB 281134
TAFCOS
TAF
KCOS 281134Z 2812/2912 13008KT P6SM VCSH SCT020 OVC040
      TEMPO 2812/2816 -SHRA BKN020
     FM281900 16012KT P6SM VCSH SCT015 OVC030
      TEMPO 2821/2901 5SM -SHRA BR BKN015
     FM290100 12010KT 3SM -SHRASN BR OVC015
     FM290500 06012KT 3/4SM -SHSN BR OVC010=



000
FTUS45 KPUB 281134
TAFALS
TAF
KALS 281134Z 2812/2912 16008KT P6SM VCSH SCT020 OVC050
      TEMPO 2812/2816 -SHRA BKN020
     FM281800 18015G25KT P6SM VCTS SCT080CB BKN150
      TEMPO 2820/2824 5SM -TSRASN BKN060CB
     FM290000 20010KT P6SM VCSH SCT030 OVC060
      TEMPO 2900/2904 3SM -SHSN BR BKN020=



000
FTUS45 KPUB 281134
TAFALS
TAF
KALS 281134Z 2812/2912 16008KT P6SM VCSH SCT020 OVC050
      TEMPO 2812/2816 -SHRA BKN020
     FM281800 18015G25KT P6SM VCTS SCT080CB BKN150
      TEMPO 2820/2824 5SM -TSRASN BKN060CB
     FM290000 20010KT P6SM VCSH SCT030 OVC060
      TEMPO 2900/2904 3SM -SHSN BR BKN020=



000
FTUS45 KPUB 281134
TAFPUB
TAF
KPUB 281134Z 2812/2912 10010KT P6SM VCSH SCT030 OVC060
      TEMPO 2812/2816 -SHRA BKN030
     FM282000 08012KT P6SM VCSH SCT020 OVC040
      TEMPO 2822/2902 -SHRA BKN020
     FM290300 05012KT 3SM -SHRA BR OVC020=



000
FTUS45 KPUB 281134
TAFCOS
TAF
KCOS 281134Z 2812/2912 13008KT P6SM VCSH SCT020 OVC040
      TEMPO 2812/2816 -SHRA BKN020
     FM281900 16012KT P6SM VCSH SCT015 OVC030
      TEMPO 2821/2901 5SM -SHRA BR BKN015
     FM290100 12010KT 3SM -SHRASN BR OVC015
     FM290500 06012KT 3/4SM -SHSN BR OVC010=



000
FTUS45 KPUB 280810 AAB
TAFPUB
TAF AMD
KPUB 280810Z 2808/2906 08010KT P6SM VCSH BKN060
     FM281200 10010KT P6SM BKN030
     FM281500 12010KT P6SM VCSH BKN035
     FM281800 09013KT P6SM BKN040
     FM282300 09012KT P6SM -SHRA OVC040
     FM290300 05015KT 5SM -SHRA BR OVC025=



000
FTUS45 KPUB 280809 AAA
TAFCOS
TAF AMD
KCOS 280809Z 2808/2906 06007KT P6SM VCSH SCT020 BKN040
     FM281200 15009KT P6SM VCSH BKN020
     FM281600 13010KT P6SM VCSH OVC015
     FM281900 15015KT P6SM BKN025
     FM282200 15012G22KT P6SM -SHRA OVC020
     FM290500 06010KT 4SM -SHRASN BR OVC015=



000
FTUS45 KPUB 280521
TAFPUB
TAF
KPUB 280521Z 2806/2906 04008KT P6SM VCSH BKN060
      TEMPO 2806/2809 -SHRA BKN050
     FM281200 10010KT P6SM BKN030
     FM281500 12010KT P6SM VCSH BKN035
     FM281800 09013KT P6SM BKN040
     FM282300 09012KT P6SM -SHRA OVC040
     FM290300 05015KT 5SM -SHRA BR OVC025=



000
FTUS45 KPUB 280521
TAFALS
TAF
KALS 280521Z 2806/2906 20006KT P6SM VCSH SCT060 BKN090
     FM281200 15010KT P6SM VCSH BKN050
     FM281600 18010KT P6SM SCT050 BKN100
     FM281900 18015G25KT P6SM VCTS SCT080CB BKN150
     FM282300 19014G28KT P6SM -TSRA BKN080CB OVC150
     FM290200 16014KT P6SM -SHRA BKN060 OVC100=



000
FTUS45 KPUB 280521
TAFCOS
TAF
KCOS 280521Z 2806/2906 06007KT P6SM VCSH BKN040 BKN060
      TEMPO 2806/2808 -SHRA BKN030
     FM280800 09008KT P6SM -SHRA BKN025
     FM281000 12007KT P6SM VCSH OVC015
     FM281200 15009KT P6SM OVC010
     FM281600 13010KT P6SM VCSH OVC015
     FM281900 15015KT P6SM BKN025
     FM282200 15012G22KT P6SM -SHRA OVC020
     FM290500 06010KT 4SM -SHRASN BR OVC015=



000
FTUS45 KPUB 280231 AAA
TAFCOS
TAF AMD
KCOS 280231Z 2803/2824 06010KT P6SM VCSH SCT050 BKN070 BKN200
     FM280400 05007KT P6SM VCSH BKN050
      TEMPO 2804/2807 -SHRA
     FM280700 09010KT P6SM VCSH BKN030
     FM281000 12007KT P6SM VCSH BKN015
     FM281600 13012KT P6SM -SHRA BKN015
     FM281900 12015G25KT P6SM -SHRA BKN025=



000
FTUS45 KPUB 280231 AAA
TAFCOS
TAF AMD
KCOS 280231Z 2803/2824 06010KT P6SM VCSH SCT050 BKN070 BKN200
     FM280400 05007KT P6SM VCSH BKN050
      TEMPO 2804/2807 -SHRA
     FM280700 09010KT P6SM VCSH BKN030
     FM281000 12007KT P6SM VCSH BKN015
     FM281600 13012KT P6SM -SHRA BKN015
     FM281900 12015G25KT P6SM -SHRA BKN025=



000
FTUS45 KPUB 280153 AAA
TAFALS
TAF AMD
KALS 280153Z 2802/2824 25010KT P6SM BKN080
     FM280500 VRB05KT P6SM BKN060
     FM281400 11012KT P6SM BKN050
     FM282000 18010G20KT P6SM VCTS SCT080CB BKN150=



000
FTUS45 KPUB 272342
TAFCOS
TAF
KCOS 272342Z 2800/2824 06010KT P6SM VCSH SCT050 BKN070 BKN200
      TEMPO 2800/2804 -SHRA BKN050
     FM280400 05007KT P6SM VCSH BKN040
     FM280700 09010KT P6SM VCSH BKN030
     FM281000 09010KT P6SM BKN015
     FM281600 13012KT P6SM VCSH BKN025
     FM281900 12015G25KT P6SM -SHRA BKN025=



000
FTUS45 KPUB 272342
TAFPUB
TAF
KPUB 272342Z 2800/2824 14012KT P6SM SCT100
     FM280300 08006KT P6SM SCT060 BKN120
     FM281000 06006KT P6SM BKN060
     FM281500 07012KT P6SM VCSH BKN060
     FM282000 09013KT P6SM BKN030=



000
FTUS45 KPUB 272342
TAFALS
TAF
KALS 272342Z 2800/2824 24010KT P6SM VCSH BKN100
     FM280100 VRB06KT P6SM BKN080
     FM281400 11012KT P6SM BKN050
     FM282000 18010G20KT P6SM VCTS SCT080CB BKN150=



000
FTUS45 KPUB 272342
TAFCOS
TAF
KCOS 272342Z 2800/2824 06010KT P6SM VCSH SCT050 BKN070 BKN200
      TEMPO 2800/2804 -SHRA BKN050
     FM280400 05007KT P6SM VCSH BKN040
     FM280700 09010KT P6SM VCSH BKN030
     FM281000 09010KT P6SM BKN015
     FM281600 13012KT P6SM VCSH BKN025
     FM281900 12015G25KT P6SM -SHRA BKN025=



000
FTUS45 KPUB 272342
TAFALS
TAF
KALS 272342Z 2800/2824 24010KT P6SM VCSH BKN100
     FM280100 VRB06KT P6SM BKN080
     FM281400 11012KT P6SM BKN050
     FM282000 18010G20KT P6SM VCTS SCT080CB BKN150=



000
FTUS45 KPUB 272342
TAFPUB
TAF
KPUB 272342Z 2800/2824 14012KT P6SM SCT100
     FM280300 08006KT P6SM SCT060 BKN120
     FM281000 06006KT P6SM BKN060
     FM281500 07012KT P6SM VCSH BKN060
     FM282000 09013KT P6SM BKN030=



000
FTUS45 KPUB 272101 AAC
TAFPUB
TAF AMD
KPUB 272101Z 2721/2818 14012KT P6SM SCT100
     FM280300 08006KT P6SM SCT060 BKN120
     FM281000 06006KT P6SM BKN060
     FM281500 07012KT P6SM VCSH BKN060=



000
FTUS45 KPUB 271907 AAB
TAFCOS
TAF AMD
KCOS 271907Z 2719/2818 16008KT P6SM VCSH BKN060
     FM280200 06008KT P6SM BKN080
     FM280400 05007KT P6SM VCSH BKN040
     FM280700 09010KT P6SM VCSH BKN020
     FM281000 09010KT P6SM BKN015
     FM281600 13015G25KT P6SM VCSH BKN030=



000
FTUS45 KPUB 271907 AAB
TAFCOS
TAF AMD
KCOS 271907Z 2719/2818 16008KT P6SM VCSH BKN060
     FM280200 06008KT P6SM BKN080
     FM280400 05007KT P6SM VCSH BKN040
     FM280700 09010KT P6SM VCSH BKN020
     FM281000 09010KT P6SM BKN015
     FM281600 13015G25KT P6SM VCSH BKN030=



000
FTUS45 KPUB 271825 AAA
TAFCOS
TAF AMD
KCOS 271825Z 2718/2818 08012KT P6SM SCT100 SCT200
     FM272100 16008KT P6SM VCSH BKN060
     FM280200 06008KT P6SM BKN080
     FM280400 05007KT P6SM VCSH BKN040
     FM280700 09010KT P6SM VCSH BKN020
     FM281000 09010KT P6SM BKN015
     FM281600 13015G25KT P6SM VCSH BKN030=



000
FTUS45 KPUB 271735
TAFPUB
TAF
KPUB 271735Z 2718/2818 10010KT P6SM SCT100
     FM280300 08006KT P6SM SCT060 BKN120
     FM281000 06006KT P6SM BKN060
     FM281500 07012KT P6SM VCSH BKN060=



000
FTUS45 KPUB 271735
TAFALS
TAF
KALS 271735Z 2718/2818 VRB06KT P6SM SCT060
     FM272000 28008KT P6SM SCT100
     FM272200 24010KT P6SM VCSH BKN100
     FM280100 VRB06KT P6SM BKN080
     FM281400 11012KT P6SM BKN050=



000
FTUS45 KPUB 271735
TAFCOS
TAF
KCOS 271735Z 2718/2818 13006KT P6SM SCT100 SCT200
     FM272100 16008KT P6SM VCSH BKN060
     FM280200 06008KT P6SM BKN080
     FM280400 05007KT P6SM VCSH BKN040
     FM280700 09010KT P6SM VCSH BKN020
     FM281000 09010KT P6SM BKN015
     FM281600 13015G25KT P6SM VCSH BKN030=



000
FTUS45 KPUB 271137
TAFPUB
TAF
KPUB 271137Z 2712/2812 VRB06KT P6SM FEW030 SCT120
     FM271400 12006KT P6SM FEW120 SCT200
     FM272100 10010KT P6SM SCT100 BKN200
     FM280300 08006KT P6SM SCT060 BKN120
     FM281000 06006KT P6SM BKN060=



000
FTUS45 KPUB 271137
TAFALS
TAF
KALS 271137Z 2712/2812 VRB05KT P6SM FEW200
     FM272100 20010KT P6SM VCSH SCT080 BKN140
     FM280200 16006KT P6SM BKN080=



000
FTUS45 KPUB 271137
TAFCOS
TAF
KCOS 271137Z 2712/2812 35007KT P6SM FEW120 SCT200
     FM271600 03008KT P6SM FEW100 SCT200
     FM272100 13012KT P6SM VCSH SCT050 BKN100
     FM280300 03008KT P6SM VCSH BKN050
     FM281000 06007KT P6SM BKN040=



000
FTUS45 KPUB 271137
TAFCOS
TAF
KCOS 271137Z 2712/2812 35007KT P6SM FEW120 SCT200
     FM271600 03008KT P6SM FEW100 SCT200
     FM272100 13012KT P6SM VCSH SCT050 BKN100
     FM280300 03008KT P6SM VCSH BKN050
     FM281000 06007KT P6SM BKN040=



000
FTUS45 KPUB 271137
TAFALS
TAF
KALS 271137Z 2712/2812 VRB05KT P6SM FEW200
     FM272100 20010KT P6SM VCSH SCT080 BKN140
     FM280200 16006KT P6SM BKN080=



000
FTUS45 KPUB 271137
TAFPUB
TAF
KPUB 271137Z 2712/2812 VRB06KT P6SM FEW030 SCT120
     FM271400 12006KT P6SM FEW120 SCT200
     FM272100 10010KT P6SM SCT100 BKN200
     FM280300 08006KT P6SM SCT060 BKN120
     FM281000 06006KT P6SM BKN060=



000
FTUS45 KPUB 270756 AAB
TAFPUB
TAF AMD
KPUB 270756Z 2708/2806 06010KT P6SM SCT025 SCT150
      TEMPO 2708/2710 BKN025
     FM271000 03008KT P6SM SCT030 SCT150
     FM272100 12009KT P6SM SCT080 SCT200
     FM280100 09010KT P6SM SCT080 BKN200=



000
FTUS45 KPUB 270756 AAB
TAFPUB
TAF AMD
KPUB 270756Z 2708/2806 06010KT P6SM SCT025 SCT150
      TEMPO 2708/2710 BKN025
     FM271000 03008KT P6SM SCT030 SCT150
     FM272100 12009KT P6SM SCT080 SCT200
     FM280100 09010KT P6SM SCT080 BKN200=



000
FTUS45 KPUB 270740 AAA
TAFCOS
TAF AMD
KCOS 270740Z 2708/2806 36014KT P6SM SCT015 SCT140
      TEMPO 2708/2710 BKN015
     FM271000 35008KT P6SM SCT020 SCT140
     FM272100 10012KT P6SM VCTS SCT050CB BKN100
     FM280200 03010KT P6SM VCSH BKN050 BKN100=



000
FTUS45 KPUB 270712 AAA
TAFPUB
TAF AMD
KPUB 270712Z 2707/2806 06010KT P6SM FEW030 SCT150
     FM271000 03008KT P6SM SCT030 SCT150
     FM272100 12009KT P6SM SCT080 SCT200
     FM280100 09010KT P6SM SCT080 BKN200=



000
FTUS45 KPUB 270524
TAFALS
TAF
KALS 270524Z 2706/2806 29005KT P6SM SCT040 BKN080
     FM271000 VRB05KT P6SM FEW080
     FM272100 19010KT P6SM VCTS SCT060CB BKN150
     FM280100 36010KT P6SM SCT060 BKN100=



000
FTUS45 KPUB 270524
TAFPUB
TAF
KPUB 270524Z 2706/2806 36013KT P6SM SCT060 SCT150
     FM271000 35010KT P6SM SCT050 SCT150
     FM272100 12009KT P6SM SCT080 SCT200
     FM280100 09010KT P6SM SCT080 BKN200=



000
FTUS45 KPUB 270524
TAFCOS
TAF
KCOS 270524Z 2706/2806 36013KT P6SM SCT030 SCT140
     FM271000 35008KT P6SM SCT040 SCT140
     FM272100 10012KT P6SM VCTS SCT050CB BKN100
     FM280200 03010KT P6SM VCSH BKN050 BKN100=



000
FTUS45 KPUB 270027 AAA
TAFALS
TAF AMD
KALS 270027Z 2700/2724 30012KT P6SM VCSH SCT060 BKN150
     FM270200 30010KT P6SM SCT080 BKN100
     FM270500 29005KT P6SM SCT200
     FM272100 18012KT P6SM VCTS SCT080CB BKN150=



000
FTUS45 KPUB 270026 AAB
TAFPUB
TAF AMD
KPUB 270026Z 2700/2724 35020G30KT P6SM VCSH SCT080 BKN120
     FM270300 01014G24KT P6SM SCT080 BKN150
     FM271200 35010KT P6SM SCT080 BKN150
     FM272100 12009KT P6SM SCT080 SCT200=



000
FTUS45 KPUB 270024 AAA
TAFCOS
TAF AMD
KCOS 270024Z 2700/2724 35015G28KT P6SM VCSH SCT050 SCT070 BKN250
     FM270300 36014G24KT P6SM SCT070 BKN250
     FM270500 01012KT P6SM BKN040
     FM271000 35010KT P6SM SCT080 BKN150
     FM272100 10012KT P6SM VCTS SCT050CB BKN100=



000
FTUS45 KPUB 270024 AAA
TAFCOS
TAF AMD
KCOS 270024Z 2700/2724 35015G28KT P6SM VCSH SCT050 SCT070 BKN250
     FM270300 36014G24KT P6SM SCT070 BKN250
     FM270500 01012KT P6SM BKN040
     FM271000 35010KT P6SM SCT080 BKN150
     FM272100 10012KT P6SM VCTS SCT050CB BKN100=



000
FTUS45 KPUB 262320
TAFALS
TAF
KALS 262320Z 2700/2724 35012KT P6SM VCSH SCT035 BKN060 BKN080
     FM270200 30010KT P6SM SCT080 BKN100
     FM270500 29005KT P6SM SCT200
     FM272100 18012KT P6SM VCTS SCT080CB BKN150=



000
FTUS45 KPUB 262320
TAFCOS
TAF
KCOS 262320Z 2700/2724 35015G25KT P6SM VCTS SCT050CB BKN100
     FM270300 36014G28KT P6SM SCT050 BKN080
     FM270500 01012KT P6SM BKN040
     FM271000 35010KT P6SM SCT080 BKN150
     FM272100 10012KT P6SM VCTS SCT050CB BKN100=



000
FTUS45 KPUB 262320
TAFALS
TAF
KALS 262320Z 2700/2724 35012KT P6SM VCSH SCT035 BKN060 BKN080
     FM270200 30010KT P6SM SCT080 BKN100
     FM270500 29005KT P6SM SCT200
     FM272100 18012KT P6SM VCTS SCT080CB BKN150=



000
FTUS45 KPUB 262320
TAFPUB
TAF
KPUB 262320Z 2700/2724 34015G25KT P6SM VCTS SCT080CB BKN150
     FM270100 28014KT P6SM VCSH SCT060 BKN120
     FM270400 01014G24KT P6SM SCT040 BKN060
     FM271200 35010KT P6SM SCT080 BKN150
     FM272100 12009KT P6SM SCT080 SCT200=



000
FTUS45 KPUB 262320
TAFCOS
TAF
KCOS 262320Z 2700/2724 35015G25KT P6SM VCTS SCT050CB BKN100
     FM270300 36014G28KT P6SM SCT050 BKN080
     FM270500 01012KT P6SM BKN040
     FM271000 35010KT P6SM SCT080 BKN150
     FM272100 10012KT P6SM VCTS SCT050CB BKN100=



000
FTUS45 KPUB 262320
TAFPUB
TAF
KPUB 262320Z 2700/2724 34015G25KT P6SM VCTS SCT080CB BKN150
     FM270100 28014KT P6SM VCSH SCT060 BKN120
     FM270400 01014G24KT P6SM SCT040 BKN060
     FM271200 35010KT P6SM SCT080 BKN150
     FM272100 12009KT P6SM SCT080 SCT200=



000
FTUS45 KPUB 262152 AAB
TAFALS
TAF AMD
KALS 262152Z 2622/2718 32016KT P6SM VCTS BKN060CB BKN100
      TEMPO 2622/2624 VRB05KT 3SM -RASN BKN025
     FM270200 27010KT P6SM SCT080 BKN120
     FM270500 29005KT P6SM SCT200=



000
FTUS45 KPUB 262138 AAB
TAFCOS
TAF AMD
KCOS 262138Z 2622/2718 33015G25KT P6SM VCTS SCT050CB BKN100
     FM270300 36018G28KT P6SM SCT040 BKN080
     FM270900 35012KT P6SM SCT080 BKN150=



000
FTUS45 KPUB 262135 AAA
TAFALS
TAF AMD
KALS 262135Z 2622/2718 25014G24KT P6SM VCTS SCT060CB BKN100
      TEMPO 2622/2624 32016KT BKN060CB
     FM270200 27010KT P6SM SCT080 BKN120
     FM270500 29005KT P6SM SCT200=



000
FTUS45 KPUB 261911 AAA
TAFCOS
TAF AMD
KCOS 261911Z 2619/2718 10015KT P6SM SCT090 BKN200
     FM262200 24014KT P6SM VCTS SCT080CB BKN140
     FM270000 33015KT P6SM VCTS SCT050CB BKN100
     FM270300 36018G28KT P6SM SCT040 BKN080
     FM270900 35012KT P6SM SCT080 BKN150=



000
FTUS45 KPUB 261911 AAA
TAFCOS
TAF AMD
KCOS 261911Z 2619/2718 10015KT P6SM SCT090 BKN200
     FM262200 24014KT P6SM VCTS SCT080CB BKN140
     FM270000 33015KT P6SM VCTS SCT050CB BKN100
     FM270300 36018G28KT P6SM SCT040 BKN080
     FM270900 35012KT P6SM SCT080 BKN150=



000
FTUS45 KPUB 261730
TAFPUB
TAF
KPUB 261730Z 2618/2718 19011KT P6SM FEW120 BKN200
     FM262200 24015KT P6SM SCT090 BKN150
     FM270100 28014KT P6SM SCT060 BKN120
     FM270400 01018G28KT P6SM SCT060 BKN120
     FM271000 35010KT P6SM SCT080 BKN150=



000
FTUS45 KPUB 261730
TAFCOS
TAF
KCOS 261730Z 2618/2718 16012KT P6SM SCT090 BKN200
     FM262200 24014KT P6SM VCTS SCT080CB BKN140
     FM270000 33015KT P6SM VCTS SCT050CB BKN100
     FM270300 36018G28KT P6SM SCT040 BKN080
     FM270900 35012KT P6SM SCT080 BKN150=



000
FTUS45 KPUB 261730
TAFALS
TAF
KALS 261730Z 2618/2718 22013KT P6SM SCT060 BKN150
     FM261900 25014G24KT P6SM VCTS SCT060CB BKN100
     FM270200 27010KT P6SM SCT080 BKN120
     FM270500 29005KT P6SM SCT200=



000
FTUS45 KPUB 261125
TAFALS
TAF
KALS 261125Z 2612/2712 19007KT P6SM SCT120 SCT200
     FM261600 22013KT P6SM SCT070 BKN150
     FM261900 25014G24KT P6SM VCTS SCT060CB BKN100
     FM270200 27010KT P6SM SCT080 BKN120=



000
FTUS45 KPUB 261125
TAFCOS
TAF
KCOS 261125Z 2612/2712 33008KT P6SM SCT250
      TEMPO 2612/2614 26012G22KT
     FM261700 18009KT P6SM SCT100 SCT200
     FM262200 22014KT P6SM VCTS SCT080CB BKN140
     FM270000 33015KT P6SM VCTS SCT050CB BKN100
     FM270300 36018G28KT P6SM SCT060 BKN140=



000
FTUS45 KPUB 261125
TAFPUB
TAF
KPUB 261125Z 2612/2712 VRB06KT P6SM SCT250
     FM261800 19010KT P6SM FEW120 SCT250
     FM262200 24015KT P6SM SCT090 BKN150
     FM270100 28014KT P6SM SCT060 BKN120
     FM270400 01018G28KT P6SM SCT070 BKN150=



000
FTUS45 KPUB 261125
TAFALS
TAF
KALS 261125Z 2612/2712 19007KT P6SM SCT120 SCT200
     FM261600 22013KT P6SM SCT070 BKN150
     FM261900 25014G24KT P6SM VCTS SCT060CB BKN100
     FM270200 27010KT P6SM SCT080 BKN120=



000
FTUS45 KPUB 261125
TAFPUB
TAF
KPUB 261125Z 2612/2712 VRB06KT P6SM SCT250
     FM261800 19010KT P6SM FEW120 SCT250
     FM262200 24015KT P6SM SCT090 BKN150
     FM270100 28014KT P6SM SCT060 BKN120
     FM270400 01018G28KT P6SM SCT070 BKN150=



000
FTUS45 KPUB 261125
TAFCOS
TAF
KCOS 261125Z 2612/2712 33008KT P6SM SCT250
      TEMPO 2612/2614 26012G22KT
     FM261700 18009KT P6SM SCT100 SCT200
     FM262200 22014KT P6SM VCTS SCT080CB BKN140
     FM270000 33015KT P6SM VCTS SCT050CB BKN100
     FM270300 36018G28KT P6SM SCT060 BKN140=



000
FTUS45 KPUB 260827 AAA
TAFCOS
TAF AMD
KCOS 260827Z 2608/2706 28012KT P6SM FEW120 SCT200
      TEMPO 2609/2612 25012G22KT
     FM261200 34007KT P6SM SCT200
     FM261700 18009KT P6SM SCT080 SCT200
     FM262100 22014KT P6SM VCTS SCT070CB BKN100
     FM262300 35015KT P6SM VCTS SCT050CB BKN100
     FM270200 36015G25KT P6SM SCT050 BKN080=



000
FTUS45 KPUB 260827 AAA
TAFCOS
TAF AMD
KCOS 260827Z 2608/2706 28012KT P6SM FEW120 SCT200
      TEMPO 2609/2612 25012G22KT
     FM261200 34007KT P6SM SCT200
     FM261700 18009KT P6SM SCT080 SCT200
     FM262100 22014KT P6SM VCTS SCT070CB BKN100
     FM262300 35015KT P6SM VCTS SCT050CB BKN100
     FM270200 36015G25KT P6SM SCT050 BKN080=



000
FTUS45 KPUB 260640 AAA
TAFPUB
TAF AMD
KPUB 260640Z 2607/2706 28014G24KT P6SM FEW140 SCT200
     FM261000 25007KT P6SM FEW250
     FM261800 19010KT P6SM SCT250
     FM262200 24015KT P6SM SCT090 BKN150
     FM270300 36015G25KT P6SM SCT080 BKN120=



000
FTUS45 KPUB 260640 AAA
TAFPUB
TAF AMD
KPUB 260640Z 2607/2706 28014G24KT P6SM FEW140 SCT200
     FM261000 25007KT P6SM FEW250
     FM261800 19010KT P6SM SCT250
     FM262200 24015KT P6SM SCT090 BKN150
     FM270300 36015G25KT P6SM SCT080 BKN120=



000
FTUS45 KPUB 260537
TAFALS
TAF
KALS 260537Z 2606/2706 24010KT P6SM SCT070 BKN120
     FM260800 19007KT P6SM SCT120 SCT200
     FM261500 22013KT P6SM SCT070 BKN150
     FM261900 25014G24KT P6SM VCTS SCT060CB BKN100
     FM270200 27010KT P6SM SCT080 BKN120=



000
FTUS45 KPUB 260537
TAFPUB
TAF
KPUB 260537Z 2606/2706 28011KT P6SM SCT140 SCT200
     FM260900 25006KT P6SM SCT250
     FM261800 19010KT P6SM SCT250
     FM262200 24015KT P6SM SCT090 BKN150
     FM270300 36015G25KT P6SM SCT080 BKN120=



000
FTUS45 KPUB 260537
TAFCOS
TAF
KCOS 260537Z 2606/2706 19011KT P6SM SCT110 BKN200
     FM261100 34007KT P6SM SCT200
     FM261700 18009KT P6SM SCT080 SCT200
     FM262100 22014KT P6SM VCTS SCT070CB BKN100
     FM262300 35015KT P6SM VCTS SCT050CB BKN100
     FM270200 36015G25KT P6SM SCT050 BKN080=



000
FTUS45 KPUB 260537
TAFPUB
TAF
KPUB 260537Z 2606/2706 28011KT P6SM SCT140 SCT200
     FM260900 25006KT P6SM SCT250
     FM261800 19010KT P6SM SCT250
     FM262200 24015KT P6SM SCT090 BKN150
     FM270300 36015G25KT P6SM SCT080 BKN120=



000
FTUS45 KPUB 260537
TAFALS
TAF
KALS 260537Z 2606/2706 24010KT P6SM SCT070 BKN120
     FM260800 19007KT P6SM SCT120 SCT200
     FM261500 22013KT P6SM SCT070 BKN150
     FM261900 25014G24KT P6SM VCTS SCT060CB BKN100
     FM270200 27010KT P6SM SCT080 BKN120=



000
FTUS45 KPUB 260537
TAFCOS
TAF
KCOS 260537Z 2606/2706 19011KT P6SM SCT110 BKN200
     FM261100 34007KT P6SM SCT200
     FM261700 18009KT P6SM SCT080 SCT200
     FM262100 22014KT P6SM VCTS SCT070CB BKN100
     FM262300 35015KT P6SM VCTS SCT050CB BKN100
     FM270200 36015G25KT P6SM SCT050 BKN080=



000
FTUS45 KPUB 260423 AAB
TAFCOS
TAF AMD
KCOS 260423Z 2604/2624 19014KT P6SM SCT110 BKN200
     FM261000 34009KT P6SM SCT200
     FM261700 18010KT P6SM SCT080 SCT200
     FM262100 22014KT P6SM VCSH SCT050 BKN100=



000
FTUS45 KPUB 260239 AAA
TAFALS
TAF AMD
KALS 260239Z 2603/2624 27015G25KT P6SM VCSH SCT050 BKN070
     FM260500 24010KT P6SM SCT070 BKN140
     FM260800 19010KT P6SM SCT120 SCT200
     FM261500 22013KT P6SM SCT070 BKN150
     FM261900 25014G24KT P6SM VCTS SCT060CB BKN100=



000
FTUS45 KPUB 260215 AAB
TAFPUB
TAF AMD
KPUB 260215Z 2602/2624 24012KT P6SM VCTS SCT100CB BKN150
      TEMPO 2602/2604 27015G30KT -TSRA BKN100CB
     FM260400 32010KT P6SM BKN150
     FM260900 25006KT P6SM SCT250
     FM261600 27010KT P6SM SCT250
     FM262100 24015KT P6SM SCT090 BKN150=



    US Dept of Commerce
    National Oceanic and Atmospheric Administration
    National Weather Service
    1325 East West Highway
    Silver Spring, MD 20910
    Page Author: NWS Internet Services Team
Disclaimer
Information Quality
Credits
Glossary
Privacy Policy
Freedom of Information Act (FOIA)
About Us
Career Opportunities